Impacts TAF Board INFO
FOR SITUATIONAL AWARENESS. NOT TO BE USED FOR FLIGHT PLANNING PURPOSES.
IDs:

KORD - Chicago/O'Hare Intl, IL, US

Issued at 1748 UTC 11 Dec 2017
Updated at 1858 UTC 11 Dec 2017
Potential Impact None Slight Moderate High
Time1851Z 11/19Z 11/20Z 11/21Z 11/22Z 11/23Z 12/00Z 12/01Z 12/02Z 12/03Z 12/04Z 12/05Z 12/06Z 12/07Z>>
Type OBS PRVL PRVL PRVL PRVL PRVL PRVL
  [TEMP]  
PRVL
  [TEMP]  
PRVL PRVL PRVL PRVL PRVL PRVL
VIS 10 >6 >6 >6 >6 >6 >6
  [5]  
>6
  [5]  
>6 >6 >6 >6 >6 >6
CIG 85 120 120 120 80 80 35
  [15]  
35
  [15]  
35 30 30 30 30 30
Cover OVC BKN BKN BKN BKN BKN OVC
  [OVC]  
OVC
  [OVC]  
OVC BKN BKN BKN BKN BKN
FltCat VFR VFR VFR VFR VFR VFR VFR
  [MVFR]  
VFR
  [MVFR]  
VFR MVFR MVFR MVFR MVFR MVFR
WX -- -- -- -- -- -- -SHSN
  [-SHSN]  
-SHSN
  [-SHSN]  
-SHSN -- -- -- -- --
WDir 160 170 120 120 30 30 340
[340]
340
[340]
340 330 330 330 330 330
WSpd 7 9 6 6 6 6 13
  [13]  
13
  [13]  
13 18 18 18 18 18
WGst -- -- -- -- -- -- 19
  [19]  
19
  [19]  
19 30 30 30 30 30

Raw TAF
KORD 111748Z 1118/1224 17009KT P6SM SCT070 BKN120
  FM112000 12006KT P6SM BKN120
  FM112200 03006KT P6SM BKN080
  FM120000 34013G19KT P6SM -SHSN OVC035
  TEMPO 1200/1202 5SM -SHSN OVC015
  FM120300 33018G30KT P6SM BKN030
  FM121300 32015G22KT P6SM SCT035 SCT250


Raw METAR
KORD 111851Z 16007KT 10SM BKN085 BKN110 BKN160 OVC250 03/M04 A2970 RMK AO2 SLP063 T00281039
KORD 111751Z 16010KT 10SM BKN100 OVC250 02/M04 A2974 RMK AO2 SLP077 T00171044 10017 21022 57050
KORD 111651Z 16009KT 10SM BKN110 BKN160 OVC250 01/M05 A2978 RMK AO2 SLP093 T00061050
KORD 111551Z 17011KT 10SM FEW065 BKN150 OVC250 00/M06 A2985 RMK AO2 SLP114 VIRGA W-N T00001056

METAR Board
Radar Display
Forecast Discussion

FOR SITUATIONAL AWARENESS. NOT TO BE USED FOR FLIGHT PLANNING PURPOSES.